Time,TemperatureF,DewpointF,PressureIn,WindDirection,WindDirectionDegrees,WindSpeedMPH,WindSpeedGustMPH,Humidity,HourlyPrecipIn,Conditions,Clouds,dailyrainin,SoftwareType,DateUTC
2013-03-18 07:30:00,53.7,50.2,29.78,SSE,161,10.0,20.0,88,0.00,CLR,,0.20,WeatherDisplay:10.37,2013-03-18 06:30:00,
2013-03-18 07:40:00,54.2,50.1,29.78,SSE,160,10.0,30.0,86,0.00,CLR,,0.20,WeatherDisplay:10.37,2013-03-18 06:40:00,
2013-03-18 07:50:00,54.1,50.3,29.78,SSE,159,13.0,31.0,87,0.00,CLR,,0.20,WeatherDisplay:10.37,2013-03-18 06:50:00,
2013-03-18 08:00:00,54.5,49.8,29.77,SSE,158,13.0,24.0,84,0.00,CLR,,0.20,WeatherDisplay:10.37,2013-03-18 07:00:00,
2013-03-18 08:10:00,54.5,50.4,29.77,South,173,12.0,33.0,86,0.00,CLR,,0.20,WeatherDisplay:10.37,2013-03-18 07:10:00,
2013-03-18 08:20:00,54.4,50.6,29.77,SSE,163,14.0,25.0,87,0.00,CLR,,0.20,WeatherDisplay:10.37,2013-03-18 07:20:00,
2013-03-18 08:30:00,54.4,50.6,29.76,SSE,162,14.0,26.0,87,0.00,CLR,,0.20,WeatherDisplay:10.37,2013-03-18 07:30:00,
2013-03-18 08:40:00,54.8,50.7,29.76,SSE,147,15.0,30.0,86,0.00,CLR,,0.20,WeatherDisplay:10.37,2013-03-18 07:40:00,
2013-03-18 08:50:00,54.4,50.9,29.76,SSE,151,18.0,29.0,88,0.00,,,0.20,WeatherDisplay:10.37,2013-03-18 07:50:00,
2013-03-18 09:00:00,54.5,50.4,29.76,SSE,158,15.0,30.0,86,0.00,,,0.20,WeatherDisplay:10.37,2013-03-18 08:00:00,
2013-03-18 09:10:00,54.3,50.5,29.76,SSE,166,14.0,30.0,87,0.00,CLR,,0.20,WeatherDisplay:10.37,2013-03-18 08:10:00,
2013-03-18 09:20:00,54.5,50.7,29.75,SE,141,13.0,28.0,87,0.00,CLR,,0.20,WeatherDisplay:10.37,2013-03-18 08:20:00,
2013-03-18 09:30:00,54.7,50.6,29.76,SSE,167,10.0,28.0,86,0.00,CLR,,0.20,WeatherDisplay:10.37,2013-03-18 08:30:00,
2013-03-18 09:40:00,54.9,50.8,29.75,SE,139,14.0,26.0,86,0.00,CLR,,0.20,WeatherDisplay:10.37,2013-03-18 08:40:00,
2013-03-18 09:50:00,54.9,50.5,29.75,SSE,158,14.0,26.0,85,0.00,CLR,,0.20,WeatherDisplay:10.37,2013-03-18 08:50:00,
2013-03-18 10:00:00,55.0,50.9,29.75,SE,140,12.0,31.0,86,0.00,CLR,,0.20,WeatherDisplay:10.37,2013-03-18 09:00:00,
2013-03-18 10:10:00,55.2,50.8,29.75,SSE,162,17.0,30.0,85,0.00,CLR,,0.20,WeatherDisplay:10.37,2013-03-18 09:10:00,
2013-03-18 10:20:00,55.4,51.3,29.75,South,170,17.0,33.0,86,0.00,CLR,,0.20,WeatherDisplay:10.37,2013-03-18 09:20:00,
2013-03-18 10:30:00,55.2,51.7,29.74,SSE,151,13.0,28.0,88,0.00,CLR,,0.20,WeatherDisplay:10.37,2013-03-18 09:30:00,
2013-03-18 10:40:00,55.0,51.5,29.75,SSE,164,14.0,27.0,88,0.00,CLR,,0.20,WeatherDisplay:10.37,2013-03-18 09:40:00,
2013-03-18 10:50:00,55.1,51.3,29.74,SSE,153,10.0,28.0,87,0.00,CLR,,0.20,WeatherDisplay:10.37,2013-03-18 09:50:00,
2013-03-18 11:00:00,55.3,51.2,29.74,SSE,164,9.0,23.0,86,0.00,CLR,,0.20,WeatherDisplay:10.37,2013-03-18 10:00:00,
2013-03-18 11:10:00,55.8,51.7,29.73,SE,137,9.0,22.0,86,0.00,CLR,,0.20,WeatherDisplay:10.37,2013-03-18 10:10:00,
2013-03-18 11:20:00,56.2,51.7,29.72,ESE,112,7.0,20.0,85,0.00,CLR,,0.20,WeatherDisplay:10.37,2013-03-18 10:20:00,
2013-03-18 11:30:00,56.1,51.3,29.71,SSE,154,17.0,28.0,84,0.00,CLR,,0.20,WeatherDisplay:10.37,2013-03-18 10:30:00,
2013-03-18 11:40:00,55.8,51.7,29.71,SSE,164,14.0,31.0,86,0.00,CLR,,0.20,WeatherDisplay:10.37,2013-03-18 10:40:00,
2013-03-18 11:50:00,55.8,51.0,29.71,SSE,159,14.0,30.0,84,0.00,CLR,,0.20,WeatherDisplay:10.37,2013-03-18 10:50:00,
2013-03-18 12:00:00,56.0,51.2,29.70,SSE,165,17.0,26.0,84,0.00,,,0.20,WeatherDisplay:10.37,2013-03-18 11:00:00,
2013-03-18 12:10:00,56.0,51.2,29.70,SSE,164,18.0,31.0,84,0.00,,,0.20,WeatherDisplay:10.37,2013-03-18 11:10:00,
2013-03-18 12:20:00,56.1,51.7,29.69,SSE,162,13.0,31.0,85,0.00,CLR,,0.20,WeatherDisplay:10.37,2013-03-18 11:20:00,
2013-03-18 12:30:00,56.7,51.9,29.68,South,172,12.0,35.0,84,0.00,CLR,,0.20,WeatherDisplay:10.37,2013-03-18 11:30:00,
2013-03-18 12:40:00,57.2,51.8,29.68,SSE,162,15.0,28.0,82,0.00,CLR,,0.20,WeatherDisplay:10.37,2013-03-18 11:40:00,
2013-03-18 12:50:00,57.5,51.7,29.68,SSE,163,14.0,36.0,81,0.00,,,0.20,WeatherDisplay:10.37,2013-03-18 11:50:00,
2013-03-18 13:00:00,57.1,51.7,29.68,South,169,10.0,40.0,82,0.00,CLR,,0.20,WeatherDisplay:10.37,2013-03-18 12:00:00,
2013-03-18 13:10:00,56.9,51.8,29.69,SSE,162,13.0,27.0,83,0.00,CLR,,0.20,WeatherDisplay:10.37,2013-03-18 12:10:00,
2013-03-18 13:20:00,56.4,51.6,29.68,SSE,167,15.0,29.0,84,0.00,CLR,,0.20,WeatherDisplay:10.37,2013-03-18 12:20:00,
2013-03-18 13:30:00,56.1,52.0,29.68,SSE,147,8.0,24.0,86,0.00,CLR,,0.20,WeatherDisplay:10.37,2013-03-18 12:30:00,
2013-03-18 13:40:00,56.5,52.4,29.67,SSE,153,8.0,23.0,86,0.00,CLR,,0.20,WeatherDisplay:10.37,2013-03-18 12:40:00,
2013-03-18 13:50:00,56.4,52.3,29.67,SSE,164,14.0,29.0,86,0.00,CLR,,0.20,WeatherDisplay:10.37,2013-03-18 12:50:00,
2013-03-18 14:00:00,56.2,52.4,29.65,SSE,158,10.0,25.0,87,0.00,CLR,,0.20,WeatherDisplay:10.37,2013-03-18 13:00:00,
2013-03-18 14:10:00,56.8,52.3,29.66,SSE,164,14.0,23.0,85,0.00,CLR,,0.20,WeatherDisplay:10.37,2013-03-18 13:10:00,
2013-03-18 14:20:00,56.6,52.1,29.66,SSE,168,13.0,27.0,85,0.00,,,0.20,WeatherDisplay:10.37,2013-03-18 13:20:00,
2013-03-18 14:30:00,56.5,52.0,29.67,South,175,12.0,22.0,85,0.00,CLR,,0.20,WeatherDisplay:10.37,2013-03-18 13:30:00,
2013-03-18 14:40:00,56.3,52.2,29.65,SSE,157,12.0,21.0,86,0.00,CLR,,0.20,WeatherDisplay:10.37,2013-03-18 13:40:00,
2013-03-18 14:50:00,56.2,52.1,29.65,SSE,153,13.0,25.0,86,0.00,CLR,,0.20,WeatherDisplay:10.37,2013-03-18 13:50:00,
2013-03-18 15:00:00,56.4,52.6,29.66,SE,141,6.0,13.0,87,0.00,CLR,,0.20,WeatherDisplay:10.37,2013-03-18 14:00:00,
2013-03-18 15:10:00,56.3,52.2,29.65,SSE,152,10.0,21.0,86,0.00,CLR,,0.20,WeatherDisplay:10.37,2013-03-18 14:10:00,
2013-03-18 15:20:00,56.3,52.5,29.65,South,170,9.0,20.0,87,0.00,CLR,,0.20,WeatherDisplay:10.37,2013-03-18 14:20:00,
2013-03-18 15:30:00,56.3,52.5,29.63,SSE,149,15.0,26.0,87,0.00,CLR,,0.20,WeatherDisplay:10.37,2013-03-18 14:30:00,
2013-03-18 15:40:00,56.3,52.5,29.63,SSE,159,12.0,24.0,87,0.00,CLR,,0.20,WeatherDisplay:10.37,2013-03-18 14:40:00,
2013-03-18 15:50:00,56.4,52.9,29.64,SSE,160,10.0,18.0,88,0.00,CLR,,0.20,WeatherDisplay:10.37,2013-03-18 14:50:00,
2013-03-18 16:00:00,56.2,53.0,29.63,South,182,10.0,22.0,89,0.00,CLR,,0.20,WeatherDisplay:10.37,2013-03-18 15:00:00,
2013-03-18 16:10:00,56.2,52.7,29.64,South,177,9.0,22.0,88,0.01,RA,,0.21,WeatherDisplay:10.37,2013-03-18 15:10:00,
2013-03-18 16:20:00,56.2,52.7,29.63,South,181,10.0,17.0,88,0.00,RA,,0.21,WeatherDisplay:10.37,2013-03-18 15:20:00,
2013-03-18 16:30:00,56.4,52.9,29.63,South,174,14.0,22.0,88,0.00,RA,,0.21,WeatherDisplay:10.37,2013-03-18 15:30:00,
2013-03-18 16:40:00,56.5,53.0,29.63,SSE,152,12.0,23.0,88,0.00,CLR,,0.21,WeatherDisplay:10.37,2013-03-18 15:40:00,
2013-03-18 16:50:00,56.5,53.0,29.63,South,180,14.0,23.0,88,0.00,CLR,,0.21,WeatherDisplay:10.37,2013-03-18 15:50:00,
2013-03-18 17:00:00,56.7,53.2,29.63,South,169,10.0,22.0,88,0.00,CLR,,0.21,WeatherDisplay:10.37,2013-03-18 16:00:00,
2013-03-18 17:10:00,56.8,53.0,29.63,SSE,158,14.0,22.0,87,0.00,CLR,,0.21,WeatherDisplay:10.37,2013-03-18 16:10:00,
2013-03-18 17:20:00,56.7,53.2,29.63,SSE,163,12.0,23.0,88,0.00,CLR,,0.21,WeatherDisplay:10.37,2013-03-18 16:20:00,
2013-03-18 17:30:00,56.8,53.3,29.63,South,178,14.0,23.0,88,0.00,CLR,,0.21,WeatherDisplay:10.37,2013-03-18 16:30:00,
2013-03-18 17:39:00,56.8,53.3,29.63,South,175,12.0,26.0,88,0.00,CLR,,0.21,WeatherDisplay:10.37,2013-03-18 16:39:00,
2013-03-18 17:49:00,56.8,53.3,29.63,SSE,165,14.0,26.0,88,0.00,CLR,,0.21,WeatherDisplay:10.37,2013-03-18 16:49:00,
2013-03-18 17:59:00,56.8,53.6,29.64,SE,143,8.0,18.0,89,0.00,CLR,,0.21,WeatherDisplay:10.37,2013-03-18 16:59:00,
2013-03-18 18:09:00,56.8,53.9,29.64,SSE,167,6.0,22.0,90,0.00,CLR,,0.21,WeatherDisplay:10.37,2013-03-18 17:09:00,
2013-03-18 18:19:00,56.9,54.0,29.64,South,175,6.0,20.0,90,0.00,CLR,,0.21,WeatherDisplay:10.37,2013-03-18 17:19:00,
2013-03-18 18:29:00,57.0,54.4,29.64,SSE,165,6.0,20.0,91,0.00,CLR,,0.21,WeatherDisplay:10.37,2013-03-18 17:29:00,
2013-03-18 18:39:00,56.9,54.3,29.65,SW,233,2.0,12.0,91,0.00,CLR,,0.21,WeatherDisplay:10.37,2013-03-18 17:39:00,
2013-03-18 18:49:00,56.8,54.5,29.65,WSW,253,7.0,14.0,92,0.00,CLR,,0.21,WeatherDisplay:10.37,2013-03-18 17:49:00,
2013-03-18 19:00:00,56.7,54.7,29.65,WSW,248,6.0,14.0,93,0.00,CLR,,0.21,WeatherDisplay:10.37,2013-03-18 18:00:00,
2013-03-18 19:10:00,56.6,54.6,29.66,WSW,254,6.0,14.0,93,0.00,CLR,,0.21,WeatherDisplay:10.37,2013-03-18 18:10:00,
2013-03-18 19:20:00,56.8,54.5,29.66,WNW,282,13.0,22.0,92,0.00,CLR,,0.21,WeatherDisplay:10.37,2013-03-18 18:20:00,
2013-03-18 19:30:00,57.0,54.7,29.66,WNW,297,9.0,22.0,92,0.00,CLR,,0.21,WeatherDisplay:10.37,2013-03-18 18:30:00,
2013-03-18 19:40:00,56.8,54.5,29.66,WNW,286,10.0,20.0,92,0.00,CLR,,0.21,WeatherDisplay:10.37,2013-03-18 18:40:00,
2013-03-18 19:50:00,56.7,54.7,29.67,WNW,292,10.0,20.0,93,0.00,CLR,,0.21,WeatherDisplay:10.37,2013-03-18 18:50:00,
2013-03-18 19:59:00,56.6,54.6,29.67,WNW,294,10.0,23.0,93,0.00,CLR,,0.21,WeatherDisplay:10.37,2013-03-18 18:59:00,
2013-03-18 20:09:00,56.4,54.7,29.68,WNW,297,10.0,20.0,94,0.00,CLR,,0.21,WeatherDisplay:10.37,2013-03-18 19:09:00,
2013-03-18 20:20:00,56.2,53.9,29.68,WNW,295,12.0,20.0,92,0.00,CLR,,0.21,WeatherDisplay:10.37,2013-03-18 19:20:00,
2013-03-18 20:29:00,56.0,52.8,29.69,WNW,299,14.0,20.0,89,0.00,CLR,,0.21,WeatherDisplay:10.37,2013-03-18 19:29:00,
2013-03-18 20:40:00,55.8,52.3,29.69,WNW,296,10.0,20.0,88,0.00,CLR,,0.21,WeatherDisplay:10.37,2013-03-18 19:40:00,
2013-03-18 20:50:00,55.5,51.4,29.69,NW,312,9.0,17.0,86,0.00,CLR,,0.21,WeatherDisplay:10.37,2013-03-18 19:50:00,
2013-03-18 20:59:00,55.4,48.7,29.69,WNW,302,15.0,25.0,78,0.00,CLR,,0.21,WeatherDisplay:10.37,2013-03-18 19:59:00,
2013-03-18 21:10:00,55.3,49.2,29.70,WNW,289,9.0,16.0,80,0.00,CLR,,0.21,WeatherDisplay:10.37,2013-03-18 20:10:00,
2013-03-18 21:19:00,55.1,49.4,29.70,NW,318,9.0,14.0,81,0.00,CLR,,0.21,WeatherDisplay:10.37,2013-03-18 20:19:00,
2013-03-18 21:29:00,55.0,48.9,29.70,WNW,293,10.0,15.0,80,0.00,CLR,,0.21,WeatherDisplay:10.37,2013-03-18 20:29:00,
2013-03-18 21:39:00,54.9,48.5,29.70,WNW,299,10.0,20.0,79,0.00,CLR,,0.21,WeatherDisplay:10.37,2013-03-18 20:39:00,
2013-03-18 21:49:00,54.9,46.8,29.70,WNW,299,13.0,21.0,74,0.00,CLR,,0.21,WeatherDisplay:10.37,2013-03-18 20:49:00,
2013-03-18 22:00:00,54.8,45.9,29.70,WNW,298,12.0,20.0,72,0.00,CLR,,0.21,WeatherDisplay:10.37,2013-03-18 21:00:00,
2013-03-18 22:10:00,54.8,45.6,29.71,WNW,292,12.0,23.0,71,0.00,CLR,,0.21,WeatherDisplay:10.37,2013-03-18 21:10:00,
2013-03-18 22:20:00,54.9,45.3,29.71,WNW,287,12.0,20.0,70,0.00,CLR,,0.21,WeatherDisplay:10.37,2013-03-18 21:20:00,
2013-03-18 22:30:00,54.8,44.4,29.71,West,278,13.0,18.0,68,0.00,CLR,,0.21,WeatherDisplay:10.37,2013-03-18 21:30:00,
2013-03-18 22:40:00,54.9,44.1,29.71,WNW,289,9.0,26.0,67,0.00,CLR,,0.21,WeatherDisplay:10.37,2013-03-18 21:40:00,
2013-03-18 22:50:00,54.9,43.7,29.71,WNW,287,14.0,28.0,66,0.00,CLR,,0.21,WeatherDisplay:10.37,2013-03-18 21:50:00,